Wetterdaten: September 2012
Datum Temp Feuchte Luftdruck Regen Wind Richtung Sonnenschein UV Solar Windben
01.09.2012 12,6 C 83 % 1025,3 hPa 0,0 l/m 0,1 km/h N-NW 3,83 h 2,1 UV-I 263 W/m 1,2 km/h
02.09.2012 13,0 C 85 % 1024,6 hPa 0,2 l/m 2,1 km/h S 8,75 h 2,7 UV-I 349 W/m 4,8 km/h
03.09.2012 12,4 C 92 % 1024,0 hPa 0,0 l/m 0,0 km/h NW 5,33 h 1,9 UV-I 238 W/m 0,4 km/h
04.09.2012 15,0 C 85 % 1021,4 hPa 0,2 l/m 0,0 km/h NW 9,92 h 2,9 UV-I 369 W/m 0,0 km/h
05.09.2012 14,8 C 78 % 1021,7 hPa 0,0 l/m 4,0 km/h N-NW 3,17 h 2,3 UV-I 225 W/m 11,3 km/h
06.09.2012 11,2 C 84 % 1025,4 hPa 0,0 l/m 0,8 km/h NW 2,08 h 1,9 UV-I 211 W/m 3,2 km/h
07.09.2012 16,3 C 77 % 1022,5 hPa 0,0 l/m 0,7 km/h S 6,92 h 2,6 UV-I 300 W/m 6,1 km/h
08.09.2012 16,5 C 88 % 1019,9 hPa 0,0 l/m 0,3 km/h W-NW 6,67 h 2,8 UV-I 330 W/m 2,8 km/h
09.09.2012 19,4 C 73 % 1014,1 hPa 0,2 l/m 2,9 km/h S-SO 9,92 h 2,7 UV-I 360 W/m 7,7 km/h
10.09.2012 18,8 C 71 % 1013,0 hPa 0,0 l/m 2,7 km/h S 9,17 h 2,3 UV-I 331 W/m 6,0 km/h
11.09.2012 16,1 C 87 % 1010,6 hPa 15,4 l/m 3,1 km/h S 1,00 h 1,5 UV-I 137 W/m 7,3 km/h
12.09.2012 9,4 C 91 % 1012,3 hPa 0,6 l/m 0,0 km/h NW 2,33 h 1,4 UV-I 168 W/m 0,0 km/h
13.09.2012 10,7 C 87 % 1016,6 hPa 0,2 l/m 0,0 km/h W 6,08 h 2,1 UV-I 286 W/m 0,0 km/h
14.09.2012 11,5 C 90 % 1011,1 hPa 1,2 l/m 3,0 km/h S 2,67 h 1,4 UV-I 161 W/m 7,2 km/h
15.09.2012 12,5 C 89 % 1016,5 hPa 0,0 l/m 0,7 km/h W-NW 0,58 h 1,3 UV-I 137 W/m 5,2 km/h
16.09.2012 13,7 C 82 % 1014,2 hPa 0,0 l/m 0,1 km/h S 9,33 h 2,4 UV-I 352 W/m 1,6 km/h
17.09.2012 12,2 C 92 % 1013,4 hPa 0,0 l/m 0,3 km/h S-SW 1,00 h 1,3 UV-I 129 W/m 4,8 km/h
18.09.2012 13,4 C 82 % 1011,0 hPa 0,0 l/m 0,3 km/h S-SW 3,08 h 1,9 UV-I 196 W/m 2,0 km/h
19.09.2012 9,1 C 81 % 1018,2 hPa 0,2 l/m 0,9 km/h W-NW 5,75 h 1,9 UV-I 287 W/m 6,4 km/h
20.09.2012 8,0 C 84 % 1022,1 hPa 0,0 l/m 0,1 km/h S-SW 6,43 h 1,7 UV-I 250 W/m 2,0 km/h
21.09.2012 8,9 C 86 % 1014,5 hPa 0,0 l/m 1,9 km/h S-SO 2,58 h 1,4 UV-I 195 W/m 4,0 km/h
22.09.2012 8,7 C 85 % 1015,7 hPa 0,2 l/m 2,3 km/h N-NW 3,42 h 1,7 UV-I 228 W/m 8,0 km/h
23.09.2012 8,5 C 78 % 1013,6 hPa 0,8 l/m 0,9 km/h O-SO 1,08 h 1,5 UV-I 155 W/m 4,8 km/h
24.09.2012 12,7 C 82 % 997,8 hPa 1,0 l/m 13,2 km/h S-SO 1,08 h 1,2 UV-I 122 W/m 22,9 km/h
25.09.2012 12,0 C 87 % 999,7 hPa 0,8 l/m 6,1 km/h S 0,50 h 0,8 UV-I 95 W/m 23,7 km/h
26.09.2012 12,5 C 86 % 1001,2 hPa 0,4 l/m 9,2 km/h S-SO 0,08 h 1,1 UV-I 101 W/m 18,5 km/h
27.09.2012 11,4 C 89 % 1006,6 hPa 1,2 l/m 5,0 km/h S 0,75 h 1,1 UV-I 128 W/m 14,5 km/h
28.09.2012 11,4 C 85 % 1015,8 hPa 0,2 l/m 0,5 km/h S 2,83 h 1,3 UV-I 175 W/m 6,0 km/h
29.09.2012 10,0 C 88 % 1016,1 hPa 1,4 l/m 1,7 km/h S 1,08 h 1,2 UV-I 136 W/m 6,9 km/h
30.09.2012 7,4 C 86 % 1020,6 hPa 0,2 l/m 1,2 km/h S 9,00 h 1,9 UV-I 312 W/m 4,8 km/h
Min-Datum 23.09.12 10.09.12 24.09.12 17 Tage 01.09.12 - - - - 01.09.12
Min-Zeit 06:45 16:00 17:40 - 00:20 - - - - 00:20
Minimum 1,5 C 42 % 993,4 hPa - 0,0 km/h - - - - 0,0 km/h
Max-Datum 10.09.12 05.09.12 06.09.12 11.09.12 24.09.12 - 04.09.12 07.09.12 01.09.12 24.09.12
Max-Zeit 16:15 07:05 10:30 16:50 16:15 - 18:40 13:25 12:50 15:00
Maximum 27,8 C 100 % 1027,0 hPa 15,4 l/m 29,2 km/h
S-SO
- 9,83 h 6,0 UV-I 967 W/m 48,3 km/h
S-SO
Durchschnitt 12,3 C 84 % 1015,3 hPa #24,4 l/m 2,1 km/h S #126:26 h 1,8 UV-I 224 W/m 6,5 km/h

Durchschnitt Minimum Temp.7,7 C
Durchschnitt Maximum Temp.18,1 C